sensor_id;sensor_type;location;lat;lon;timestamp;P1;durP1;ratioP1;P2;durP2;ratioP2
13343;SDS011;6741;48.964;9.406;2022-08-20T00:00:36;27.52;;;24.67;;
13343;SDS011;6741;48.964;9.406;2022-08-20T00:03:05;26.27;;;23.42;;
13343;SDS011;6741;48.964;9.406;2022-08-20T00:05:34;24.67;;;22.17;;
13343;SDS011;6741;48.964;9.406;2022-08-20T00:08:04;26.23;;;23.30;;
13343;SDS011;6741;48.964;9.406;2022-08-20T00:10:34;24.27;;;21.75;;
13343;SDS011;6741;48.964;9.406;2022-08-20T00:13:03;25.40;;;22.88;;
13343;SDS011;6741;48.964;9.406;2022-08-20T00:15:33;24.88;;;22.35;;
13343;SDS011;6741;48.964;9.406;2022-08-20T00:18:01;23.77;;;21.38;;
13343;SDS011;6741;48.964;9.406;2022-08-20T00:20:29;23.77;;;21.30;;
13343;SDS011;6741;48.964;9.406;2022-08-20T00:23:02;24.15;;;20.50;;
13343;SDS011;6741;48.964;9.406;2022-08-20T00:25:31;23.67;;;21.40;;
13343;SDS011;6741;48.964;9.406;2022-08-20T00:27:58;23.52;;;21.23;;
13343;SDS011;6741;48.964;9.406;2022-08-20T00:30:25;23.05;;;20.65;;
13343;SDS011;6741;48.964;9.406;2022-08-20T00:32:53;23.73;;;21.35;;
13343;SDS011;6741;48.964;9.406;2022-08-20T00:35:23;22.27;;;20.08;;
13343;SDS011;6741;48.964;9.406;2022-08-20T00:37:52;23.95;;;21.55;;
13343;SDS011;6741;48.964;9.406;2022-08-20T00:40:21;24.02;;;21.40;;
13343;SDS011;6741;48.964;9.406;2022-08-20T00:42:52;23.38;;;20.88;;
13343;SDS011;6741;48.964;9.406;2022-08-20T00:45:21;22.95;;;20.60;;
13343;SDS011;6741;48.964;9.406;2022-08-20T00:47:48;23.63;;;21.23;;
13343;SDS011;6741;48.964;9.406;2022-08-20T00:50:17;25.73;;;20.85;;
13343;SDS011;6741;48.964;9.406;2022-08-20T00:52:47;22.58;;;20.45;;
13343;SDS011;6741;48.964;9.406;2022-08-20T00:55:16;21.65;;;19.52;;
13343;SDS011;6741;48.964;9.406;2022-08-20T00:57:46;20.27;;;18.38;;
13343;SDS011;6741;48.964;9.406;2022-08-20T01:00:18;22.17;;;19.92;;
13343;SDS011;6741;48.964;9.406;2022-08-20T01:02:47;23.10;;;20.63;;
13343;SDS011;6741;48.964;9.406;2022-08-20T01:05:14;22.77;;;20.45;;
13343;SDS011;6741;48.964;9.406;2022-08-20T01:07:42;22.60;;;20.38;;
13343;SDS011;6741;48.964;9.406;2022-08-20T01:10:10;22.65;;;20.02;;
13343;SDS011;6741;48.964;9.406;2022-08-20T01:12:41;25.65;;;22.95;;
13343;SDS011;6741;48.964;9.406;2022-08-20T01:15:10;23.52;;;21.13;;
13343;SDS011;6741;48.964;9.406;2022-08-20T01:17:41;22.55;;;20.10;;
13343;SDS011;6741;48.964;9.406;2022-08-20T01:20:11;22.63;;;20.33;;
13343;SDS011;6741;48.964;9.406;2022-08-20T01:22:41;23.33;;;21.00;;
13343;SDS011;6741;48.964;9.406;2022-08-20T01:25:29;23.50;;;19.88;;
13343;SDS011;6741;48.964;9.406;2022-08-20T01:28:06;22.73;;;20.33;;
13343;SDS011;6741;48.964;9.406;2022-08-20T01:30:34;21.20;;;19.00;;
13343;SDS011;6741;48.964;9.406;2022-08-20T01:33:02;22.75;;;20.42;;
13343;SDS011;6741;48.964;9.406;2022-08-20T01:35:33;21.40;;;19.10;;
13343;SDS011;6741;48.964;9.406;2022-08-20T01:38:01;22.38;;;18.20;;
13343;SDS011;6741;48.964;9.406;2022-08-20T01:40:37;21.10;;;19.10;;
13343;SDS011;6741;48.964;9.406;2022-08-20T01:43:25;19.77;;;17.88;;
13343;SDS011;6741;48.964;9.406;2022-08-20T01:45:52;21.02;;;18.92;;
13343;SDS011;6741;48.964;9.406;2022-08-20T01:48:20;20.10;;;18.08;;
13343;SDS011;6741;48.964;9.406;2022-08-20T01:50:50;22.58;;;18.63;;
13343;SDS011;6741;48.964;9.406;2022-08-20T01:53:24;19.38;;;17.40;;
13343;SDS011;6741;48.964;9.406;2022-08-20T01:55:56;17.67;;;15.77;;
13343;SDS011;6741;48.964;9.406;2022-08-20T01:58:23;16.73;;;15.00;;
13343;SDS011;6741;48.964;9.406;2022-08-20T02:00:51;16.73;;;14.93;;
13343;SDS011;6741;48.964;9.406;2022-08-20T02:03:18;15.30;;;13.90;;
13343;SDS011;6741;48.964;9.406;2022-08-20T02:05:45;14.88;;;13.38;;
13343;SDS011;6741;48.964;9.406;2022-08-20T02:08:13;14.10;;;12.80;;
13343;SDS011;6741;48.964;9.406;2022-08-20T02:10:40;14.25;;;12.75;;
13343;SDS011;6741;48.964;9.406;2022-08-20T02:13:15;15.85;;;14.35;;
13343;SDS011;6741;48.964;9.406;2022-08-20T02:16:16;17.40;;;15.60;;
13343;SDS011;6741;48.964;9.406;2022-08-20T02:18:44;19.58;;;17.42;;
13343;SDS011;6741;48.964;9.406;2022-08-20T02:21:11;18.00;;;15.93;;
13343;SDS011;6741;48.964;9.406;2022-08-20T02:23:38;18.67;;;16.70;;
13343;SDS011;6741;48.964;9.406;2022-08-20T02:26:05;19.63;;;17.65;;
13343;SDS011;6741;48.964;9.406;2022-08-20T02:28:33;17.45;;;15.52;;
13343;SDS011;6741;48.964;9.406;2022-08-20T02:31:00;16.90;;;15.20;;
13343;SDS011;6741;48.964;9.406;2022-08-20T02:33:28;17.85;;;16.15;;
13343;SDS011;6741;48.964;9.406;2022-08-20T02:35:54;17.88;;;15.20;;
13343;SDS011;6741;48.964;9.406;2022-08-20T02:38:23;17.30;;;15.50;;
13343;SDS011;6741;48.964;9.406;2022-08-20T02:40:50;18.13;;;14.55;;
13343;SDS011;6741;48.964;9.406;2022-08-20T02:43:17;15.82;;;14.30;;
13343;SDS011;6741;48.964;9.406;2022-08-20T02:45:46;17.70;;;15.82;;
13343;SDS011;6741;48.964;9.406;2022-08-20T02:48:14;16.48;;;14.95;;
13343;SDS011;6741;48.964;9.406;2022-08-20T02:50:47;16.80;;;15.27;;
13343;SDS011;6741;48.964;9.406;2022-08-20T02:53:16;14.27;;;12.88;;
13343;SDS011;6741;48.964;9.406;2022-08-20T02:55:43;14.60;;;13.20;;
13343;SDS011;6741;48.964;9.406;2022-08-20T02:58:10;14.80;;;13.25;;
13343;SDS011;6741;48.964;9.406;2022-08-20T03:00:37;15.07;;;13.57;;
13343;SDS011;6741;48.964;9.406;2022-08-20T03:03:07;13.80;;;12.50;;
13343;SDS011;6741;48.964;9.406;2022-08-20T03:05:35;15.23;;;13.45;;
13343;SDS011;6741;48.964;9.406;2022-08-20T03:08:04;14.57;;;13.07;;
13343;SDS011;6741;48.964;9.406;2022-08-20T03:10:33;12.85;;;11.63;;
13343;SDS011;6741;48.964;9.406;2022-08-20T03:13:01;12.88;;;11.68;;
13343;SDS011;6741;48.964;9.406;2022-08-20T03:15:29;13.50;;;12.02;;
13343;SDS011;6741;48.964;9.406;2022-08-20T03:17:56;13.10;;;11.90;;
13343;SDS011;6741;48.964;9.406;2022-08-20T03:20:26;13.88;;;12.48;;
13343;SDS011;6741;48.964;9.406;2022-08-20T03:22:55;14.88;;;13.50;;
13343;SDS011;6741;48.964;9.406;2022-08-20T03:25:23;14.10;;;12.80;;
13343;SDS011;6741;48.964;9.406;2022-08-20T03:27:50;16.40;;;12.70;;
13343;SDS011;6741;48.964;9.406;2022-08-20T03:30:17;13.52;;;12.25;;
13343;SDS011;6741;48.964;9.406;2022-08-20T03:32:45;14.68;;;13.23;;
13343;SDS011;6741;48.964;9.406;2022-08-20T03:35:13;13.48;;;12.20;;
13343;SDS011;6741;48.964;9.406;2022-08-20T03:37:43;13.50;;;12.18;;
13343;SDS011;6741;48.964;9.406;2022-08-20T03:40:11;12.90;;;11.70;;
13343;SDS011;6741;48.964;9.406;2022-08-20T03:42:40;12.80;;;11.60;;
13343;SDS011;6741;48.964;9.406;2022-08-20T03:45:08;13.05;;;11.75;;
13343;SDS011;6741;48.964;9.406;2022-08-20T03:47:36;12.23;;;10.32;;
13343;SDS011;6741;48.964;9.406;2022-08-20T03:50:04;13.00;;;11.75;;
13343;SDS011;6741;48.964;9.406;2022-08-20T03:52:33;12.93;;;11.18;;
13343;SDS011;6741;48.964;9.406;2022-08-20T03:55:02;14.98;;;12.52;;
13343;SDS011;6741;48.964;9.406;2022-08-20T03:57:29;14.25;;;12.75;;
13343;SDS011;6741;48.964;9.406;2022-08-20T03:59:56;15.07;;;12.27;;
13343;SDS011;6741;48.964;9.406;2022-08-20T04:02:23;15.13;;;13.07;;
13343;SDS011;6741;48.964;9.406;2022-08-20T04:04:51;14.23;;;12.32;;
13343;SDS011;6741;48.964;9.406;2022-08-20T04:07:20;15.90;;;14.27;;
13343;SDS011;6741;48.964;9.406;2022-08-20T04:09:51;13.88;;;12.60;;
13343;SDS011;6741;48.964;9.406;2022-08-20T04:12:20;15.02;;;13.55;;
13343;SDS011;6741;48.964;9.406;2022-08-20T04:14:48;14.93;;;13.52;;
13343;SDS011;6741;48.964;9.406;2022-08-20T04:17:16;16.10;;;14.40;;
13343;SDS011;6741;48.964;9.406;2022-08-20T04:19:44;14.13;;;12.77;;
13343;SDS011;6741;48.964;9.406;2022-08-20T04:22:12;14.15;;;12.75;;
13343;SDS011;6741;48.964;9.406;2022-08-20T04:24:39;13.98;;;12.57;;
13343;SDS011;6741;48.964;9.406;2022-08-20T04:27:07;14.32;;;13.02;;
13343;SDS011;6741;48.964;9.406;2022-08-20T04:29:38;14.30;;;13.00;;
13343;SDS011;6741;48.964;9.406;2022-08-20T04:32:07;15.30;;;13.60;;
13343;SDS011;6741;48.964;9.406;2022-08-20T04:34:34;13.75;;;12.35;;
13343;SDS011;6741;48.964;9.406;2022-08-20T04:37:01;14.23;;;12.93;;
13343;SDS011;6741;48.964;9.406;2022-08-20T04:39:28;14.75;;;13.35;;
13343;SDS011;6741;48.964;9.406;2022-08-20T04:41:55;13.00;;;11.80;;
13343;SDS011;6741;48.964;9.406;2022-08-20T04:44:21;15.07;;;13.68;;
13343;SDS011;6741;48.964;9.406;2022-08-20T04:46:49;14.45;;;13.15;;
13343;SDS011;6741;48.964;9.406;2022-08-20T04:49:16;12.88;;;11.68;;
13343;SDS011;6741;48.964;9.406;2022-08-20T04:51:50;11.75;;;10.65;;
13343;SDS011;6741;48.964;9.406;2022-08-20T04:54:18;12.38;;;11.23;;
13343;SDS011;6741;48.964;9.406;2022-08-20T04:56:45;11.82;;;10.75;;
13343;SDS011;6741;48.964;9.406;2022-08-20T04:59:13;11.85;;;10.75;;
13343;SDS011;6741;48.964;9.406;2022-08-20T05:01:40;13.52;;;12.18;;
13343;SDS011;6741;48.964;9.406;2022-08-20T05:04:08;12.73;;;11.63;;
13343;SDS011;6741;48.964;9.406;2022-08-20T05:06:35;14.82;;;12.18;;
13343;SDS011;6741;48.964;9.406;2022-08-20T05:09:02;13.75;;;12.20;;
13343;SDS011;6741;48.964;9.406;2022-08-20T05:11:29;13.15;;;11.77;;
13343;SDS011;6741;48.964;9.406;2022-08-20T05:13:56;14.18;;;12.77;;
13343;SDS011;6741;48.964;9.406;2022-08-20T05:16:23;13.30;;;12.10;;
13343;SDS011;6741;48.964;9.406;2022-08-20T05:18:50;12.82;;;11.63;;
13343;SDS011;6741;48.964;9.406;2022-08-20T05:21:19;12.55;;;11.38;;
13343;SDS011;6741;48.964;9.406;2022-08-20T05:23:47;11.93;;;10.75;;
13343;SDS011;6741;48.964;9.406;2022-08-20T05:26:13;12.02;;;10.82;;
13343;SDS011;6741;48.964;9.406;2022-08-20T05:28:40;13.05;;;11.65;;
13343;SDS011;6741;48.964;9.406;2022-08-20T05:31:09;11.98;;;10.88;;
13343;SDS011;6741;48.964;9.406;2022-08-20T05:33:36;12.27;;;11.07;;
13343;SDS011;6741;48.964;9.406;2022-08-20T05:36:04;12.45;;;10.80;;
13343;SDS011;6741;48.964;9.406;2022-08-20T05:38:34;11.80;;;10.50;;
13343;SDS011;6741;48.964;9.406;2022-08-20T05:41:02;12.00;;;10.43;;
13343;SDS011;6741;48.964;9.406;2022-08-20T05:43:30;11.43;;;10.32;;
13343;SDS011;6741;48.964;9.406;2022-08-20T05:45:57;11.35;;;10.13;;
13343;SDS011;6741;48.964;9.406;2022-08-20T05:48:25;11.32;;;10.32;;
13343;SDS011;6741;48.964;9.406;2022-08-20T05:50:53;12.30;;;11.10;;
13343;SDS011;6741;48.964;9.406;2022-08-20T05:53:22;12.27;;;11.07;;
13343;SDS011;6741;48.964;9.406;2022-08-20T05:55:51;10.70;;;9.60;;
13343;SDS011;6741;48.964;9.406;2022-08-20T05:58:19;11.48;;;10.38;;
13343;SDS011;6741;48.964;9.406;2022-08-20T06:00:48;11.70;;;10.40;;
13343;SDS011;6741;48.964;9.406;2022-08-20T06:03:16;10.35;;;9.43;;
13343;SDS011;6741;48.964;9.406;2022-08-20T06:06:00;10.32;;;9.35;;
13343;SDS011;6741;48.964;9.406;2022-08-20T06:08:28;10.40;;;9.43;;
13343;SDS011;6741;48.964;9.406;2022-08-20T06:10:57;9.98;;;9.18;;
13343;SDS011;6741;48.964;9.406;2022-08-20T06:13:24;9.55;;;8.70;;
13343;SDS011;6741;48.964;9.406;2022-08-20T06:15:51;9.93;;;8.93;;
13343;SDS011;6741;48.964;9.406;2022-08-20T06:18:18;9.45;;;8.45;;
13343;SDS011;6741;48.964;9.406;2022-08-20T06:20:45;10.02;;;9.13;;
13343;SDS011;6741;48.964;9.406;2022-08-20T06:23:12;9.50;;;8.63;;
13343;SDS011;6741;48.964;9.406;2022-08-20T06:25:39;10.15;;;8.98;;
13343;SDS011;6741;48.964;9.406;2022-08-20T06:28:08;8.93;;;8.13;;
13343;SDS011;6741;48.964;9.406;2022-08-20T06:30:35;10.18;;;9.20;;
13343;SDS011;6741;48.964;9.406;2022-08-20T06:33:02;9.38;;;8.57;;
13343;SDS011;6741;48.964;9.406;2022-08-20T06:35:29;8.82;;;8.07;;
13343;SDS011;6741;48.964;9.406;2022-08-20T06:37:58;9.40;;;8.50;;
13343;SDS011;6741;48.964;9.406;2022-08-20T06:40:26;9.40;;;8.60;;
13343;SDS011;6741;48.964;9.406;2022-08-20T06:42:54;11.40;;;9.35;;
13343;SDS011;6741;48.964;9.406;2022-08-20T06:45:23;15.05;;;11.60;;
13343;SDS011;6741;48.964;9.406;2022-08-20T06:47:52;12.25;;;9.68;;
13343;SDS011;6741;48.964;9.406;2022-08-20T06:50:22;11.23;;;10.00;;
13343;SDS011;6741;48.964;9.406;2022-08-20T06:52:51;13.85;;;10.50;;
13343;SDS011;6741;48.964;9.406;2022-08-20T06:55:18;14.02;;;11.50;;
13343;SDS011;6741;48.964;9.406;2022-08-20T06:57:46;11.77;;;10.63;;
13343;SDS011;6741;48.964;9.406;2022-08-20T07:00:20;12.52;;;11.25;;
13343;SDS011;6741;48.964;9.406;2022-08-20T07:02:48;13.05;;;11.70;;
13343;SDS011;6741;48.964;9.406;2022-08-20T07:05:15;17.23;;;12.30;;
13343;SDS011;6741;48.964;9.406;2022-08-20T07:07:43;12.48;;;11.07;;
13343;SDS011;6741;48.964;9.406;2022-08-20T07:10:13;14.75;;;11.88;;
13343;SDS011;6741;48.964;9.406;2022-08-20T07:12:41;12.60;;;11.13;;
13343;SDS011;6741;48.964;9.406;2022-08-20T07:15:09;12.65;;;10.35;;
13343;SDS011;6741;48.964;9.406;2022-08-20T07:17:38;11.57;;;10.40;;
13343;SDS011;6741;48.964;9.406;2022-08-20T07:20:07;11.05;;;9.88;;
13343;SDS011;6741;48.964;9.406;2022-08-20T07:22:36;11.07;;;9.35;;
13343;SDS011;6741;48.964;9.406;2022-08-20T07:25:03;13.13;;;11.15;;
13343;SDS011;6741;48.964;9.406;2022-08-20T07:27:31;12.77;;;11.45;;
13343;SDS011;6741;48.964;9.406;2022-08-20T07:29:58;11.93;;;10.68;;
13343;SDS011;6741;48.964;9.406;2022-08-20T07:32:43;11.43;;;10.25;;
13343;SDS011;6741;48.964;9.406;2022-08-20T07:35:13;10.40;;;9.30;;
13343;SDS011;6741;48.964;9.406;2022-08-20T07:37:41;11.38;;;10.27;;
13343;SDS011;6741;48.964;9.406;2022-08-20T07:40:11;12.07;;;10.77;;
13343;SDS011;6741;48.964;9.406;2022-08-20T07:42:42;10.85;;;9.75;;
13343;SDS011;6741;48.964;9.406;2022-08-20T07:45:09;10.88;;;9.23;;
13343;SDS011;6741;48.964;9.406;2022-08-20T07:47:38;11.50;;;9.52;;
13343;SDS011;6741;48.964;9.406;2022-08-20T07:50:07;11.10;;;9.65;;
13343;SDS011;6741;48.964;9.406;2022-08-20T07:52:36;10.32;;;9.32;;
13343;SDS011;6741;48.964;9.406;2022-08-20T07:55:04;9.13;;;8.18;;
13343;SDS011;6741;48.964;9.406;2022-08-20T07:57:33;9.00;;;8.10;;
13343;SDS011;6741;48.964;9.406;2022-08-20T07:59:59;9.65;;;8.27;;
13343;SDS011;6741;48.964;9.406;2022-08-20T08:02:26;9.30;;;8.40;;
13343;SDS011;6741;48.964;9.406;2022-08-20T08:04:54;8.32;;;7.53;;
13343;SDS011;6741;48.964;9.406;2022-08-20T08:07:21;8.55;;;7.68;;
13343;SDS011;6741;48.964;9.406;2022-08-20T08:09:51;8.05;;;7.28;;
13343;SDS011;6741;48.964;9.406;2022-08-20T08:12:20;8.55;;;7.65;;
13343;SDS011;6741;48.964;9.406;2022-08-20T08:14:47;9.40;;;7.53;;
13343;SDS011;6741;48.964;9.406;2022-08-20T08:17:17;8.27;;;7.47;;
13343;SDS011;6741;48.964;9.406;2022-08-20T08:19:45;8.27;;;7.47;;
13343;SDS011;6741;48.964;9.406;2022-08-20T08:22:16;9.05;;;8.25;;
13343;SDS011;6741;48.964;9.406;2022-08-20T08:24:45;9.90;;;7.40;;
13343;SDS011;6741;48.964;9.406;2022-08-20T08:27:13;9.27;;;8.38;;
13343;SDS011;6741;48.964;9.406;2022-08-20T08:29:42;8.27;;;7.47;;
13343;SDS011;6741;48.964;9.406;2022-08-20T08:32:09;7.82;;;7.03;;
13343;SDS011;6741;48.964;9.406;2022-08-20T08:34:36;7.72;;;7.03;;
13343;SDS011;6741;48.964;9.406;2022-08-20T08:37:03;7.88;;;7.15;;
13343;SDS011;6741;48.964;9.406;2022-08-20T08:39:31;7.57;;;6.85;;
13343;SDS011;6741;48.964;9.406;2022-08-20T08:41:59;7.45;;;6.65;;
13343;SDS011;6741;48.964;9.406;2022-08-20T08:44:30;7.95;;;7.25;;
13343;SDS011;6741;48.964;9.406;2022-08-20T08:47:10;7.45;;;6.75;;
13343;SDS011;6741;48.964;9.406;2022-08-20T08:49:45;8.07;;;7.28;;
13343;SDS011;6741;48.964;9.406;2022-08-20T08:52:14;8.30;;;7.50;;
13343;SDS011;6741;48.964;9.406;2022-08-20T08:54:47;8.95;;;8.05;;
13343;SDS011;6741;48.964;9.406;2022-08-20T08:57:17;8.98;;;8.07;;
13343;SDS011;6741;48.964;9.406;2022-08-20T08:59:47;8.40;;;7.70;;
13343;SDS011;6741;48.964;9.406;2022-08-20T09:02:21;8.70;;;7.90;;
13343;SDS011;6741;48.964;9.406;2022-08-20T09:04:51;7.30;;;6.55;;
13343;SDS011;6741;48.964;9.406;2022-08-20T09:07:20;7.25;;;6.47;;
13343;SDS011;6741;48.964;9.406;2022-08-20T09:09:48;7.18;;;6.47;;
13343;SDS011;6741;48.964;9.406;2022-08-20T09:12:17;6.22;;;5.63;;
13343;SDS011;6741;48.964;9.406;2022-08-20T09:14:47;6.15;;;5.65;;
13343;SDS011;6741;48.964;9.406;2022-08-20T09:17:15;6.60;;;6.05;;
13343;SDS011;6741;48.964;9.406;2022-08-20T09:19:44;5.85;;;5.35;;
13343;SDS011;6741;48.964;9.406;2022-08-20T09:22:12;6.57;;;5.97;;
13343;SDS011;6741;48.964;9.406;2022-08-20T09:24:41;6.82;;;6.13;;
13343;SDS011;6741;48.964;9.406;2022-08-20T09:27:09;6.88;;;5.28;;
13343;SDS011;6741;48.964;9.406;2022-08-20T09:29:36;5.85;;;5.05;;
13343;SDS011;6741;48.964;9.406;2022-08-20T09:32:06;5.20;;;4.70;;
13343;SDS011;6741;48.964;9.406;2022-08-20T09:34:34;5.18;;;4.60;;
13343;SDS011;6741;48.964;9.406;2022-08-20T09:37:02;4.50;;;4.05;;
13343;SDS011;6741;48.964;9.406;2022-08-20T09:39:29;4.20;;;3.80;;
13343;SDS011;6741;48.964;9.406;2022-08-20T09:42:04;3.90;;;3.45;;
13343;SDS011;6741;48.964;9.406;2022-08-20T09:44:32;3.92;;;3.50;;
13343;SDS011;6741;48.964;9.406;2022-08-20T09:46:59;3.70;;;3.50;;
13343;SDS011;6741;48.964;9.406;2022-08-20T09:49:27;3.60;;;3.25;;
13343;SDS011;6741;48.964;9.406;2022-08-20T09:51:55;3.17;;;2.97;;
13343;SDS011;6741;48.964;9.406;2022-08-20T09:54:22;3.75;;;3.45;;
13343;SDS011;6741;48.964;9.406;2022-08-20T09:56:52;5.75;;;4.43;;
13343;SDS011;6741;48.964;9.406;2022-08-20T09:59:19;4.13;;;3.78;;
13343;SDS011;6741;48.964;9.406;2022-08-20T10:01:46;6.05;;;4.55;;
13343;SDS011;6741;48.964;9.406;2022-08-20T10:04:13;4.30;;;4.00;;
13343;SDS011;6741;48.964;9.406;2022-08-20T10:06:41;4.57;;;4.18;;
13343;SDS011;6741;48.964;9.406;2022-08-20T10:09:08;4.65;;;4.32;;
13343;SDS011;6741;48.964;9.406;2022-08-20T10:11:35;3.95;;;3.65;;
13343;SDS011;6741;48.964;9.406;2022-08-20T10:14:02;3.90;;;3.60;;
13343;SDS011;6741;48.964;9.406;2022-08-20T10:16:29;2.90;;;2.70;;
13343;SDS011;6741;48.964;9.406;2022-08-20T10:18:56;2.40;;;2.30;;
13343;SDS011;6741;48.964;9.406;2022-08-20T10:21:23;3.47;;;3.10;;
13343;SDS011;6741;48.964;9.406;2022-08-20T10:23:51;2.92;;;2.72;;
13343;SDS011;6741;48.964;9.406;2022-08-20T10:26:18;2.60;;;2.40;;
13343;SDS011;6741;48.964;9.406;2022-08-20T10:28:45;2.42;;;2.33;;
13343;SDS011;6741;48.964;9.406;2022-08-20T10:31:12;3.13;;;2.90;;
13343;SDS011;6741;48.964;9.406;2022-08-20T10:33:39;3.53;;;3.22;;
13343;SDS011;6741;48.964;9.406;2022-08-20T10:36:07;3.03;;;2.83;;
13343;SDS011;6741;48.964;9.406;2022-08-20T10:38:35;2.70;;;2.50;;
13343;SDS011;6741;48.964;9.406;2022-08-20T10:41:04;2.25;;;2.15;;
13343;SDS011;6741;48.964;9.406;2022-08-20T10:43:31;2.17;;;2.08;;
13343;SDS011;6741;48.964;9.406;2022-08-20T10:45:58;1.60;;;1.50;;
13343;SDS011;6741;48.964;9.406;2022-08-20T10:48:25;1.73;;;1.63;;
13343;SDS011;6741;48.964;9.406;2022-08-20T10:50:52;1.60;;;1.50;;
13343;SDS011;6741;48.964;9.406;2022-08-20T10:53:19;2.25;;;1.90;;
13343;SDS011;6741;48.964;9.406;2022-08-20T10:55:46;1.90;;;1.70;;
13343;SDS011;6741;48.964;9.406;2022-08-20T10:58:15;1.98;;;1.88;;
13343;SDS011;6741;48.964;9.406;2022-08-20T11:00:42;1.95;;;1.85;;
13343;SDS011;6741;48.964;9.406;2022-08-20T11:03:09;2.25;;;2.13;;
13343;SDS011;6741;48.964;9.406;2022-08-20T11:05:36;2.50;;;2.30;;
13343;SDS011;6741;48.964;9.406;2022-08-20T11:08:03;2.50;;;2.30;;
13343;SDS011;6741;48.964;9.406;2022-08-20T11:10:31;2.90;;;2.40;;
13343;SDS011;6741;48.964;9.406;2022-08-20T11:13:00;2.95;;;2.75;;
13343;SDS011;6741;48.964;9.406;2022-08-20T11:15:29;2.65;;;2.38;;
13343;SDS011;6741;48.964;9.406;2022-08-20T11:17:56;2.65;;;2.50;;
13343;SDS011;6741;48.964;9.406;2022-08-20T11:20:23;2.50;;;2.30;;
13343;SDS011;6741;48.964;9.406;2022-08-20T11:22:51;2.50;;;2.30;;
13343;SDS011;6741;48.964;9.406;2022-08-20T11:25:18;2.10;;;2.00;;
13343;SDS011;6741;48.964;9.406;2022-08-20T11:27:47;2.42;;;2.20;;
13343;SDS011;6741;48.964;9.406;2022-08-20T11:30:16;2.90;;;2.70;;
13343;SDS011;6741;48.964;9.406;2022-08-20T11:32:46;2.70;;;2.50;;
13343;SDS011;6741;48.964;9.406;2022-08-20T11:35:13;3.00;;;2.80;;
13343;SDS011;6741;48.964;9.406;2022-08-20T11:37:41;3.28;;;3.00;;
13343;SDS011;6741;48.964;9.406;2022-08-20T11:40:08;3.42;;;3.22;;
13343;SDS011;6741;48.964;9.406;2022-08-20T11:42:36;3.03;;;2.72;;
13343;SDS011;6741;48.964;9.406;2022-08-20T11:45:03;2.20;;;2.10;;
13343;SDS011;6741;48.964;9.406;2022-08-20T11:47:31;2.13;;;1.98;;
13343;SDS011;6741;48.964;9.406;2022-08-20T11:50:03;2.05;;;1.90;;
13343;SDS011;6741;48.964;9.406;2022-08-20T11:52:32;1.90;;;1.80;;
13343;SDS011;6741;48.964;9.406;2022-08-20T11:54:59;1.80;;;1.70;;
13343;SDS011;6741;48.964;9.406;2022-08-20T11:57:27;1.60;;;1.50;;
13343;SDS011;6741;48.964;9.406;2022-08-20T11:59:59;2.00;;;1.80;;
13343;SDS011;6741;48.964;9.406;2022-08-20T12:02:28;1.70;;;1.60;;
13343;SDS011;6741;48.964;9.406;2022-08-20T12:04:55;1.42;;;1.33;;
13343;SDS011;6741;48.964;9.406;2022-08-20T12:07:24;2.08;;;1.98;;
13343;SDS011;6741;48.964;9.406;2022-08-20T12:09:51;2.03;;;1.60;;
13343;SDS011;6741;48.964;9.406;2022-08-20T12:12:19;2.13;;;1.90;;
13343;SDS011;6741;48.964;9.406;2022-08-20T12:14:48;2.10;;;2.00;;
13343;SDS011;6741;48.964;9.406;2022-08-20T12:17:16;1.70;;;1.60;;
13343;SDS011;6741;48.964;9.406;2022-08-20T12:19:47;2.47;;;2.28;;
13343;SDS011;6741;48.964;9.406;2022-08-20T12:22:16;1.85;;;1.75;;
13343;SDS011;6741;48.964;9.406;2022-08-20T12:24:44;2.15;;;2.05;;
13343;SDS011;6741;48.964;9.406;2022-08-20T12:27:12;1.80;;;1.70;;
13343;SDS011;6741;48.964;9.406;2022-08-20T12:29:41;1.70;;;1.60;;
13343;SDS011;6741;48.964;9.406;2022-08-20T12:32:09;1.83;;;1.73;;
13343;SDS011;6741;48.964;9.406;2022-08-20T12:34:37;1.77;;;1.67;;
13343;SDS011;6741;48.964;9.406;2022-08-20T12:37:06;2.95;;;1.90;;
13343;SDS011;6741;48.964;9.406;2022-08-20T12:39:36;2.08;;;1.50;;
13343;SDS011;6741;48.964;9.406;2022-08-20T12:42:05;2.00;;;1.90;;
13343;SDS011;6741;48.964;9.406;2022-08-20T12:44:32;2.35;;;2.03;;
13343;SDS011;6741;48.964;9.406;2022-08-20T12:47:07;3.35;;;2.03;;
13343;SDS011;6741;48.964;9.406;2022-08-20T12:49:35;2.13;;;1.90;;
13343;SDS011;6741;48.964;9.406;2022-08-20T12:52:03;1.60;;;1.50;;
13343;SDS011;6741;48.964;9.406;2022-08-20T12:54:30;1.83;;;1.25;;
13343;SDS011;6741;48.964;9.406;2022-08-20T12:56:57;1.38;;;1.27;;
13343;SDS011;6741;48.964;9.406;2022-08-20T12:59:26;2.50;;;2.30;;
13343;SDS011;6741;48.964;9.406;2022-08-20T13:01:53;3.67;;;3.22;;
13343;SDS011;6741;48.964;9.406;2022-08-20T13:04:20;2.83;;;1.80;;
13343;SDS011;6741;48.964;9.406;2022-08-20T13:06:47;1.70;;;1.60;;
13343;SDS011;6741;48.964;9.406;2022-08-20T13:09:14;1.50;;;1.40;;
13343;SDS011;6741;48.964;9.406;2022-08-20T13:11:42;1.75;;;1.65;;
13343;SDS011;6741;48.964;9.406;2022-08-20T13:14:09;2.03;;;1.50;;
13343;SDS011;6741;48.964;9.406;2022-08-20T13:16:38;1.70;;;1.60;;
13343;SDS011;6741;48.964;9.406;2022-08-20T13:19:04;1.27;;;1.27;;
13343;SDS011;6741;48.964;9.406;2022-08-20T13:21:31;1.85;;;1.58;;
13343;SDS011;6741;48.964;9.406;2022-08-20T13:23:58;1.90;;;1.70;;
13343;SDS011;6741;48.964;9.406;2022-08-20T13:26:25;1.52;;;1.42;;
13343;SDS011;6741;48.964;9.406;2022-08-20T13:28:52;1.75;;;1.65;;
13343;SDS011;6741;48.964;9.406;2022-08-20T13:31:20;2.95;;;2.75;;
13343;SDS011;6741;48.964;9.406;2022-08-20T13:33:48;2.95;;;2.75;;
13343;SDS011;6741;48.964;9.406;2022-08-20T13:36:15;2.55;;;2.38;;
13343;SDS011;6741;48.964;9.406;2022-08-20T13:38:42;2.00;;;1.80;;
13343;SDS011;6741;48.964;9.406;2022-08-20T13:41:09;2.13;;;2.03;;
13343;SDS011;6741;48.964;9.406;2022-08-20T13:43:36;2.28;;;2.08;;
13343;SDS011;6741;48.964;9.406;2022-08-20T13:46:03;4.13;;;2.05;;
13343;SDS011;6741;48.964;9.406;2022-08-20T13:48:30;2.30;;;2.10;;
13343;SDS011;6741;48.964;9.406;2022-08-20T13:50:58;2.20;;;2.00;;
13343;SDS011;6741;48.964;9.406;2022-08-20T13:53:25;2.00;;;1.90;;
13343;SDS011;6741;48.964;9.406;2022-08-20T13:55:52;2.13;;;2.00;;
13343;SDS011;6741;48.964;9.406;2022-08-20T13:58:19;1.95;;;1.85;;
13343;SDS011;6741;48.964;9.406;2022-08-20T14:00:47;2.00;;;1.67;;
13343;SDS011;6741;48.964;9.406;2022-08-20T14:03:14;1.65;;;1.55;;
13343;SDS011;6741;48.964;9.406;2022-08-20T14:05:41;1.17;;;1.10;;
13343;SDS011;6741;48.964;9.406;2022-08-20T14:08:11;1.00;;;1.00;;
13343;SDS011;6741;48.964;9.406;2022-08-20T14:10:39;2.38;;;1.40;;
13343;SDS011;6741;48.964;9.406;2022-08-20T14:13:07;3.72;;;1.27;;
13343;SDS011;6741;48.964;9.406;2022-08-20T14:15:35;1.95;;;1.38;;
13343;SDS011;6741;48.964;9.406;2022-08-20T14:18:02;2.35;;;1.60;;
13343;SDS011;6741;48.964;9.406;2022-08-20T14:20:30;3.03;;;1.10;;
13343;SDS011;6741;48.964;9.406;2022-08-20T14:22:59;1.08;;;1.05;;
13343;SDS011;6741;48.964;9.406;2022-08-20T14:25:28;1.35;;;1.10;;
13343;SDS011;6741;48.964;9.406;2022-08-20T14:27:56;3.65;;;1.80;;
13343;SDS011;6741;48.964;9.406;2022-08-20T14:30:25;1.85;;;1.75;;
13343;SDS011;6741;48.964;9.406;2022-08-20T14:32:54;1.65;;;1.55;;
13343;SDS011;6741;48.964;9.406;2022-08-20T14:35:21;2.50;;;1.48;;
13343;SDS011;6741;48.964;9.406;2022-08-20T14:37:49;2.58;;;1.70;;
13343;SDS011;6741;48.964;9.406;2022-08-20T14:40:18;2.20;;;1.67;;
13343;SDS011;6741;48.964;9.406;2022-08-20T14:42:48;3.63;;;1.33;;
13343;SDS011;6741;48.964;9.406;2022-08-20T14:45:15;1.88;;;1.58;;
13343;SDS011;6741;48.964;9.406;2022-08-20T14:47:43;2.72;;;1.30;;
13343;SDS011;6741;48.964;9.406;2022-08-20T14:50:13;1.88;;;1.20;;
13343;SDS011;6741;48.964;9.406;2022-08-20T14:52:42;4.20;;;1.73;;
13343;SDS011;6741;48.964;9.406;2022-08-20T14:55:10;3.55;;;1.80;;